HTMW

Mwanza Airport

Mwanza, Tanzania
METAR HTMW 152100Z 10005KT CAVOK 20/14 Q1017 NOSIG
Observed Flight Rules
Aug-15 @ 21:00 UTC (an hour ago) Visual Flight Rules
Wind Visibility Clouds
100° at 5 knots 10,000+ meters
  • Clear skies
Temperatures Readings
Current 20°C / 68°F
Dewpoint 14°C / 57°F
Humidity 69%
Altimeter 30.03" Hg
Pressure 1017 hPa
Elevation 1140
METAR HTMW 152100Z 10005KT CAVOK 20/14 Q1017 NOSIG
Observed Flight Rules
Aug-15 @ 21:00 UTC
(an hour ago)
VFR
Wind Visibility
100° at 5 knots 10,000+ meters
Clouds
  • Clear skies
Temperature Dewpoint
20°C / 68°F 14°C / 57°F
Humidity Altimeter Pressure
69% 30.03" Hg 1017 hPa